Time;durP1;ratioP1;P1;durP2;ratioP2;P2;SDS_P1;SDS_P2;PMS_P1;PMS_P2;Temp;Humidity;BMP_temperature;BMP_pressure;BME280_temperature;BME280_humidity;BME280_pressure;Samples;Min_cycle;Max_cycle;Signal;HPM_P1;HPM_P2
2022/10/08 00:09:18;;;;;;;15.77;8.83;;;13.90;99.90;;;;;;21085966;28;20221;-71
2022/10/08 00:19:20;;;;;;;15.80;9.00;;;13.80;99.90;;;;;;21084429;28;20688;-71
2022/10/08 00:29:22;;;;;;;14.53;8.83;;;13.90;99.90;;;;;;21082838;28;20204;-71
2022/10/08 00:39:24;;;;;;;14.50;8.80;;;13.90;99.90;;;;;;21083918;28;20227;-71
2022/10/08 00:49:25;;;;;;;14.03;8.93;;;14.00;99.90;;;;;;21082600;28;20200;-71
2022/10/08 00:59:28;;;;;;;13.23;8.03;;;14.00;99.90;;;;;;21081643;28;20230;-71
2022/10/08 01:09:38;;;;;;;17.93;9.10;;;14.00;99.90;;;;;;21081538;28;20202;-71
2022/10/08 01:19:45;;;;;;;14.80;8.43;;;14.00;99.90;;;;;;21080899;28;20275;-71
2022/10/08 01:29:49;;;;;;;13.80;8.47;;;14.00;99.90;;;;;;21079498;28;20206;-71
2022/10/08 01:39:53;;;;;;;10.13;7.80;;;14.10;99.90;;;;;;21078572;28;20249;-71
2022/10/08 01:50:01;;;;;;;14.10;8.00;;;14.10;99.90;;;;;;21078705;28;20684;-70
2022/10/08 02:00:09;;;;;;;19.07;10.70;;;14.10;99.90;;;;;;21069211;28;20243;-73
2022/10/08 02:10:22;;;;;;;15.70;8.17;;;14.10;99.90;;;;;;20993679;28;20237;-72
2022/10/08 02:20:32;;;;;;;12.80;8.33;;;14.10;99.90;;;;;;20993953;28;20245;-72
2022/10/08 02:30:51;;;;;;;14.90;8.63;;;14.10;99.90;;;;;;20993172;28;20253;-72
2022/10/08 02:40:57;;;;;;;13.30;8.77;;;14.20;99.90;;;;;;20992395;28;20231;-72
2022/10/08 02:51:05;;;;;;;11.93;8.43;;;14.20;99.90;;;;;;21001047;28;20204;-72
2022/10/08 03:01:25;;;;;;;14.57;8.43;;;14.20;99.90;;;;;;21007109;28;20789;-71
2022/10/08 03:11:29;;;;;;;14.90;8.47;;;14.30;99.90;;;;;;21006304;28;20201;-72
2022/10/08 03:21:31;;;;;;;13.27;8.17;;;14.30;99.90;;;;;;21005868;28;20711;-72
2022/10/08 03:31:33;;;;;;;13.97;8.83;;;14.40;99.90;;;;;;20987369;28;20205;-72
2022/10/08 03:41:34;;;;;;;16.53;8.83;;;14.40;99.90;;;;;;21004094;28;20240;-72
2022/10/08 03:51:36;;;;;;;13.60;8.43;;;14.40;99.90;;;;;;21003676;28;20666;-72
2022/10/08 04:01:38;;;;;;;13.47;8.50;;;14.50;99.90;;;;;;21002183;28;20244;-72
2022/10/08 04:11:39;;;;;;;12.50;8.40;;;14.50;99.90;;;;;;21001624;28;20209;-72
2022/10/08 04:21:41;;;;;;;18.10;8.00;;;14.40;99.90;;;;;;21001137;28;20237;-72
2022/10/08 04:31:43;;;;;;;20.17;10.17;;;14.50;99.90;;;;;;20999900;28;20211;-72
2022/10/08 04:41:44;;;;;;;17.40;9.70;;;14.40;99.90;;;;;;20999108;28;20792;-72
2022/10/08 04:51:46;;;;;;;13.97;8.30;;;14.40;99.90;;;;;;20998757;28;20618;-72
2022/10/08 05:01:48;;;;;;;12.63;8.87;;;14.40;99.90;;;;;;20997193;28;20335;-72
2022/10/08 05:11:50;;;;;;;14.57;9.33;;;14.40;99.90;;;;;;20996043;28;20210;-72
2022/10/08 05:21:51;;;;;;;11.67;8.17;;;14.40;99.90;;;;;;20996303;28;20236;-72
2022/10/08 05:31:53;;;;;;;14.50;7.97;;;14.30;99.90;;;;;;20995459;28;20215;-73
2022/10/08 05:41:55;;;;;;;12.03;9.00;;;14.20;99.90;;;;;;20994950;28;20235;-72
2022/10/08 05:51:57;;;;;;;17.10;11.20;;;14.20;99.90;;;;;;20995002;28;20646;-72
2022/10/08 06:01:59;;;;;;;13.63;9.13;;;14.00;99.90;;;;;;20993709;28;20737;-75
2022/10/08 06:12:00;;;;;;;13.37;6.60;;;14.10;99.90;;;;;;20974188;28;20466;-71
2022/10/08 06:22:03;;;;;;;10.47;5.50;;;14.20;99.90;;;;;;20961012;28;20694;-72
2022/10/08 06:32:05;;;;;;;16.53;5.70;;;14.30;99.90;;;;;;20970068;28;20571;-71
2022/10/08 06:42:07;;;;;;;14.13;5.70;;;14.40;99.90;;;;;;20941667;28;20238;-66
2022/10/08 06:52:08;;;;;;;12.33;6.23;;;14.50;99.90;;;;;;20925403;28;20250;-71
2022/10/08 07:02:10;;;;;;;10.63;5.60;;;14.40;99.90;;;;;;20924257;28;20254;-73
2022/10/08 07:12:12;;;;;;;10.83;5.37;;;14.60;99.90;;;;;;20963671;28;20235;-71
2022/10/08 07:22:14;;;;;;;10.80;4.40;;;14.50;99.90;;;;;;20933914;28;20269;-72
2022/10/08 07:32:16;;;;;;;11.97;4.77;;;14.60;99.90;;;;;;20919414;28;20247;-73
2022/10/08 07:42:17;;;;;;;9.10;3.97;;;14.60;99.90;;;;;;20918851;28;20287;-71
2022/10/08 07:52:19;;;;;;;7.47;3.30;;;14.80;99.90;;;;;;20919124;28;20218;-70
2022/10/08 08:02:21;;;;;;;10.67;3.37;;;14.90;99.90;;;;;;20918675;28;20271;-71
2022/10/08 08:12:23;;;;;;;10.57;3.77;;;15.00;99.30;;;;;;20915234;28;20207;-70
2022/10/08 08:22:24;;;;;;;9.53;2.83;;;15.30;98.80;;;;;;20918423;28;20266;-70
2022/10/08 08:32:26;;;;;;;12.97;3.03;;;15.50;97.00;;;;;;20916349;28;20216;-71
2022/10/08 08:43:02;;;;;;;13.40;4.57;;;15.50;96.90;;;;;;20915983;28;20238;-71
2022/10/08 08:53:04;;;;;;;8.47;2.73;;;15.40;95.70;;;;;;20914875;28;20214;-70
2022/10/08 09:03:25;;;;;;;8.57;2.53;;;15.60;94.40;;;;;;20914389;28;20279;-71
2022/10/08 09:13:38;;;;;;;11.87;2.97;;;15.70;93.20;;;;;;20913770;28;20265;-70
2022/10/08 09:23:40;;;;;;;8.37;2.67;;;15.80;93.60;;;;;;20913081;28;20290;-71
2022/10/08 09:33:42;;;;;;;7.83;2.53;;;16.10;93.10;;;;;;20912670;28;20278;-71
2022/10/08 09:44:03;;;;;;;6.50;2.40;;;16.20;91.90;;;;;;20911813;28;20235;-70
2022/10/08 09:54:05;;;;;;;7.17;2.10;;;16.30;91.80;;;;;;20910229;28;20232;-71
2022/10/08 10:04:28;;;;;;;6.20;2.00;;;16.40;91.20;;;;;;20910058;28;20238;-71
2022/10/08 10:14:43;;;;;;;4.73;1.87;;;16.80;90.30;;;;;;20910428;28;20584;-73
2022/10/08 10:25:01;;;;;;;8.20;1.90;;;16.70;89.60;;;;;;20910177;28;20694;-72
2022/10/08 10:35:11;;;;;;;7.33;1.50;;;16.90;88.10;;;;;;20909811;28;20632;-71
2022/10/08 10:45:17;;;;;;;6.60;1.50;;;17.00;86.50;;;;;;20908587;28;20285;-72
2022/10/08 10:55:34;;;;;;;13.60;2.13;;;17.20;83.30;;;;;;20908054;28;20644;-71
2022/10/08 11:05:39;;;;;;;4.73;1.40;;;17.10;80.20;;;;;;20905936;28;20245;-73
2022/10/08 11:15:48;;;;;;;10.80;1.50;;;17.10;80.80;;;;;;20920792;28;20212;-73
2022/10/08 11:26:30;;;;;;;8.83;2.30;;;17.40;79.30;;;;;;20921502;28;20233;-71
2022/10/08 11:36:45;;;;;;;8.73;3.63;;;17.50;79.70;;;;;;20903977;28;20209;-71
2022/10/08 11:46:46;;;;;;;4.73;1.80;;;17.60;80.00;;;;;;21002967;28;20232;-71
2022/10/08 11:57:35;;;;;;;5.27;2.00;;;17.60;79.50;;;;;;21001159;28;20608;-72
2022/10/08 12:08:01;;;;;;;7.23;3.00;;;17.50;79.80;;;;;;21001489;28;20340;-73
2022/10/08 12:18:09;;;;;;;3.83;2.20;;;18.50;81.70;;;;;;21001521;28;20203;-72
2022/10/08 12:28:19;;;;;;;9.77;2.00;;;17.70;81.10;;;;;;21000289;28;20240;-72
2022/10/08 12:38:43;;;;;;;6.43;1.90;;;17.50;81.70;;;;;;20999275;28;20207;-73
2022/10/08 12:48:49;;;;;;;6.73;2.10;;;17.60;83.60;;;;;;20998903;28;20576;-75
2022/10/08 12:58:58;;;;;;;4.33;1.77;;;17.60;85.00;;;;;;20997789;28;20201;-73
2022/10/08 13:09:00;;;;;;;6.00;2.03;;;17.30;85.70;;;;;;20996855;28;20580;-74
2022/10/08 13:19:16;;;;;;;5.07;2.10;;;17.20;86.20;;;;;;20996468;28;20204;-72
2022/10/08 13:29:21;;;;;;;4.30;2.13;;;17.20;85.10;;;;;;20995291;28;20228;-75
2022/10/08 13:39:35;;;;;;;4.40;2.33;;;16.90;85.30;;;;;;20994451;28;20691;-73
2022/10/08 13:49:37;;;;;;;3.73;2.07;;;16.80;83.90;;;;;;20994416;28;21199;-70
2022/10/08 13:59:39;;;;;;;2.47;1.90;;;16.70;84.00;;;;;;20989139;28;20274;-71
2022/10/08 14:09:40;;;;;;;10.13;2.23;;;16.60;85.20;;;;;;20910320;28;20231;-71
2022/10/08 14:19:42;;;;;;;9.40;4.23;;;16.60;85.60;;;;;;20910506;28;20213;-71
2022/10/08 14:29:44;;;;;;;6.37;2.27;;;16.80;86.00;;;;;;20891977;28;20274;-70
2022/10/08 14:39:45;;;;;;;4.20;2.50;;;16.70;86.40;;;;;;20909350;28;20203;-70
2022/10/08 14:49:47;;;;;;;8.63;3.77;;;16.60;86.60;;;;;;20921986;28;20232;-73
2022/10/08 14:59:49;;;;;;;5.67;2.40;;;16.40;87.90;;;;;;20924029;28;20593;-70
2022/10/08 15:09:50;;;;;;;5.80;2.53;;;16.00;87.80;;;;;;20905738;28;20659;-71
2022/10/08 15:19:52;;;;;;;7.40;3.00;;;16.00;88.70;;;;;;20923057;28;20222;-70
2022/10/08 15:29:54;;;;;;;6.37;2.50;;;16.10;89.40;;;;;;20904281;28;20232;-70
2022/10/08 15:39:55;;;;;;;4.33;2.47;;;16.10;89.40;;;;;;20921332;28;20543;-71
2022/10/08 15:49:57;;;;;;;4.63;2.30;;;16.00;88.60;;;;;;20920825;28;20290;-72
2022/10/08 15:59:59;;;;;;;6.90;2.40;;;16.10;88.50;;;;;;20918996;28;20303;-71
2022/10/08 16:10:01;;;;;;;8.07;2.80;;;16.10;88.60;;;;;;20918648;28;20244;-70
2022/10/08 16:20:03;;;;;;;11.47;2.80;;;16.00;87.90;;;;;;20918465;28;20276;-70
2022/10/08 16:30:05;;;;;;;6.10;3.13;;;16.00;89.00;;;;;;20917591;28;20310;-73
2022/10/08 16:40:07;;;;;;;8.17;3.70;;;15.80;89.40;;;;;;20916658;28;20204;-71
2022/10/08 16:50:09;;;;;;;11.73;5.63;;;15.50;89.80;;;;;;20916269;28;20694;-71
2022/10/08 17:00:12;;;;;;;11.07;4.80;;;15.40;90.30;;;;;;20915121;28;20745;-72
2022/10/08 17:10:13;;;;;;;7.30;4.10;;;15.10;90.70;;;;;;20913703;28;20240;-70
2022/10/08 17:20:15;;;;;;;9.20;5.30;;;15.10;91.10;;;;;;20914088;28;20204;-71
2022/10/08 17:30:17;;;;;;;24.70;9.77;;;14.70;91.60;;;;;;20913100;28;20228;-70
2022/10/08 17:40:18;;;;;;;7.43;3.70;;;14.70;92.00;;;;;;20912358;28;20241;-71
2022/10/08 17:50:20;;;;;;;19.50;9.87;;;14.40;92.30;;;;;;20912067;28;20246;-70
2022/10/08 18:00:24;;;;;;;9.40;6.63;;;14.30;93.00;;;;;;20910862;28;20355;-71
2022/10/08 18:10:26;;;;;;;13.67;8.43;;;14.10;93.40;;;;;;20911302;28;20244;-71
2022/10/08 18:20:27;;;;;;;20.47;10.53;;;14.00;93.80;;;;;;20918492;28;20212;-69
2022/10/08 18:30:29;;;;;;;12.77;7.00;;;13.80;94.10;;;;;;20926140;28;20242;-70
2022/10/08 18:40:31;;;;;;;11.23;7.23;;;13.60;94.40;;;;;;20925633;28;20219;-70
2022/10/08 18:50:32;;;;;;;14.13;6.63;;;13.40;94.40;;;;;;20925128;28;20270;-70
2022/10/08 19:00:36;;;;;;;15.03;8.73;;;13.30;94.70;;;;;;20924401;28;20266;-71
2022/10/08 19:10:38;;;;;;;14.77;6.67;;;13.00;95.00;;;;;;20924000;28;20710;-70
2022/10/08 19:20:40;;;;;;;13.03;6.97;;;12.90;95.40;;;;;;20923539;28;20264;-70
2022/10/08 19:30:41;;;;;;;16.63;6.97;;;12.80;95.50;;;;;;20921762;28;20230;-70
2022/10/08 19:40:43;;;;;;;13.07;7.00;;;12.70;95.90;;;;;;20921793;28;20240;-71
2022/10/08 19:50:45;;;;;;;15.43;7.30;;;12.50;96.10;;;;;;20921419;28;20575;-70
2022/10/08 20:00:46;;;;;;;11.47;6.80;;;12.40;96.30;;;;;;20919561;28;20711;-69
2022/10/08 20:10:48;;;;;;;15.87;7.70;;;12.40;96.80;;;;;;20919409;28;20237;-70
2022/10/08 20:20:59;;;;;;;12.87;6.80;;;12.20;96.50;;;;;;20919285;28;20261;-70
2022/10/08 20:31:22;;;;;;;14.70;7.27;;;12.10;96.60;;;;;;20917806;28;20243;-72
2022/10/08 20:41:24;;;;;;;15.73;8.37;;;12.00;96.60;;;;;;20915977;28;20726;-72
2022/10/08 20:51:32;;;;;;;14.77;8.40;;;11.90;96.70;;;;;;20916001;28;20208;-72
2022/10/08 21:01:36;;;;;;;13.83;8.80;;;11.80;96.40;;;;;;20915438;28;20235;-70
2022/10/08 21:11:38;;;;;;;16.27;8.40;;;11.80;96.70;;;;;;20914704;28;20207;-71
2022/10/08 21:21:40;;;;;;;12.00;7.37;;;11.60;96.50;;;;;;20913937;28;20761;-69
2022/10/08 21:31:42;;;;;;;16.73;8.67;;;11.60;96.80;;;;;;20913422;28;20221;-70
2022/10/08 21:41:45;;;;;;;13.97;7.07;;;11.50;96.70;;;;;;20912649;28;20233;-69
2022/10/08 21:51:47;;;;;;;17.90;7.07;;;11.20;96.60;;;;;;20911665;28;20208;-69
2022/10/08 22:01:49;;;;;;;21.23;9.13;;;11.10;96.60;;;;;;20910831;28;20636;-69
2022/10/08 22:11:53;;;;;;;13.47;7.77;;;11.10;97.00;;;;;;20911086;28;20208;-70
2022/10/08 22:21:55;;;;;;;15.10;8.37;;;10.90;96.80;;;;;;20912456;28;20243;-74
2022/10/08 22:31:57;;;;;;;11.23;7.20;;;10.80;96.80;;;;;;20950332;28;20565;-75
2022/10/08 22:41:58;;;;;;;13.80;6.93;;;10.70;96.80;;;;;;20993086;28;20235;-75
2022/10/08 22:52:00;;;;;;;12.00;7.27;;;10.60;96.50;;;;;;20992459;28;20203;-75
2022/10/08 23:02:02;;;;;;;34.90;14.00;;;10.60;96.80;;;;;;20992485;28;20242;-75
2022/10/08 23:12:03;;;;;;;15.77;8.20;;;10.50;96.40;;;;;;21005638;28;20294;-75
2022/10/08 23:22:05;;;;;;;43.03;17.27;;;10.30;96.50;;;;;;21006257;28;20312;-74
2022/10/08 23:32:07;;;;;;;25.40;12.13;;;10.30;96.40;;;;;;21005676;28;20258;-77
2022/10/08 23:42:08;;;;;;;30.27;11.63;;;10.40;96.70;;;;;;21004381;28;20307;-75
2022/10/08 23:52:10;;;;;;;35.63;13.27;;;10.30;96.40;;;;;;21004092;28;20601;-72
